Latest Coastal Weather Observations for Legendre Island

IDW60701

Issued at 8:13 pm WST Friday 28 April 2017 (issued every 10 minutes, with the page automatically refreshed every 10 minutes)

About coastal observations | Map of coastal stations | Coastal observations for WA | Marine services | Other Formats
Station Details ID: 004095 Name: LEGENDRE ISLAND Lat: -20.36 Lon: 116.84 Height: 29.0 m
Data from the previous 72 hours. | See also: Recent months at Legendre Island
Date/Time
WST
Temp
°C
Wind Pressure Rain since
9am
mm
Weather Cloud Vis
km
Sea
Height
m
Swell
Dir  Spd
kts
Gust
kts
hPa Trend Height
m
Period
s
Dir
28/08:00pm - NNE 7 8 1015.0 - - - - - - - - -
28/07:30pm - NNE 8 9 1014.9 - - - - - - - - -
28/07:00pm - NNE 7 9 1014.9 - - - - - - - - -
28/06:30pm - NE 8 8 1014.7 - - - - - - - - -
28/06:00pm - NE 7 9 1014.4 - - - - - - - - -
28/05:30pm - NE 8 9 1014.3 - - - - - - - - -
28/05:00pm - NE 9 11 1014.3 - - - - - - - - -
28/04:30pm - ENE 10 11 1014.3 - - - - - - - - -
28/04:00pm - ENE 11 12 1014.1 - - - - - - - - -
28/03:30pm - E 12 13 1014.1 - - - - - - - - -
28/03:00pm - E 13 14 1014.2 - - - - - - - - -
28/02:30pm - E 13 15 1014.4 - - - - - - - - -
28/02:00pm - E 13 16 1014.6 - - - - - - - - -
28/01:30pm - E 14 16 1014.7 - - - - - - - - -
28/01:00pm - ESE 13 15 1015.2 - - - - - - - - -
28/12:30pm - ESE 14 17 1015.6 - - - - - - - - -
28/12:00pm - ESE 14 17 1016.0 - - - - - - - - -
28/11:30am - ESE 15 18 1016.5 - - - - - - - - -
28/11:00am - ESE 15 18 1016.9 - - - - - - - - -
28/10:30am - ESE 16 19 1017.3 - - - - - - - - -
28/10:00am - ESE 17 21 1017.4 - - - - - - - - -
28/09:30am - ESE 17 21 1017.5 - - - - - - - - -
28/09:00am - ESE 18 20 1017.3 - - - - - - - - -
28/08:30am - ESE 18 21 1017.3 - - - - - - - - -
28/08:00am - SE 14 18 1017.2 - - - - - - - - -
28/07:30am - SE 15 18 1017.0 - - - - - - - - -
28/07:00am - SE 14 18 1016.8 - - - - - - - - -
28/06:30am - SE 14 18 1016.5 - - - - - - - - -
28/06:00am - SE 15 19 1016.2 - - - - - - - - -
28/05:30am - SE 13 17 1016.1 - - - - - - - - -
28/05:00am - SE 12 14 1015.9 - - - - - - - - -
28/04:30am - SE 12 15 1015.7 - - - - - - - - -
28/04:00am - SE 14 17 1015.7 - - - - - - - - -
28/03:30am - SE 14 17 1015.7 - - - - - - - - -
28/03:00am - ESE 14 17 1015.6 - - - - - - - - -
28/02:30am - SE 13 17 1015.7 - - - - - - - - -
28/02:00am - SE 13 15 1015.8 - - - - - - - - -
28/01:30am - SE 12 15 1015.9 - - - - - - - - -
28/01:00am - SE 12 15 1016.0 - - - - - - - - -
28/12:30am - SE 11 14 1016.0 - - - - - - - - -
28/12:00am - SE 11 13 1016.0 - - - - - - - - -
 
Date/Time
WST
Temp
°C
Wind Pressure Rain since
9am
mm
Weather Cloud Vis
km
Sea
Height
m
Swell
Dir  Spd
kts
Gust
kts
hPa Trend Height
m
Period
s
Dir
27/11:30pm - SSE 9 12 1016.2 - - - - - - - - -
27/11:00pm - S 9 10 1016.3 - - - - - - - - -
27/10:30pm - S 8 9 1016.3 - - - - - - - - -
27/10:00pm - S 8 10 1016.3 - - - - - - - - -
27/09:30pm - E 8 9 1016.1 - - - - - - - - -
27/09:00pm - ENE 7 9 1015.8 - - - - - - - - -
27/08:30pm - ENE 7 8 1015.7 - - - - - - - - -
27/08:00pm - NE 7 8 1015.4 - - - - - - - - -
27/07:30pm - NE 8 9 1015.2 - - - - - - - - -
27/07:00pm - NE 9 11 1014.8 - - - - - - - - -
27/06:30pm - NE 9 10 1014.7 - - - - - - - - -
27/06:00pm - NE 10 12 1014.5 - - - - - - - - -
27/05:30pm - ENE 10 12 1014.2 - - - - - - - - -
27/05:00pm - ENE 11 13 1014.1 - - - - - - - - -
27/04:30pm - ENE 12 13 1014.0 - - - - - - - - -
27/04:00pm - ENE 12 14 1014.1 - - - - - - - - -
27/03:30pm - E 12 14 1014.2 - - - - - - - - -
27/03:00pm - E 12 15 1014.3 - - - - - - - - -
27/02:30pm - E 13 16 1014.4 - - - - - - - - -
27/02:00pm - E 15 17 1014.7 - - - - - - - - -
27/01:30pm - E 16 18 1014.8 - - - - - - - - -
27/01:00pm - ESE 15 19 1015.3 - - - - - - - - -
27/12:30pm - ESE 17 20 1015.7 - - - - - - - - -
27/12:00pm - E 16 19 1016.3 - - - - - - - - -
27/11:30am - ESE 17 20 1016.6 - - - - - - - - -
27/11:00am - ESE 18 22 1017.1 - - - - - - - - -
27/10:30am - ESE 19 23 1017.4 - - - - - - - - -
27/10:00am - ESE 21 25 1017.4 - - - - - - - - -
27/09:30am - ESE 20 26 1017.4 - - - - - - - - -
27/09:00am - ESE 21 25 1017.1 - - - - - - - - -
27/08:30am - ESE 20 24 1017.0 - - - - - - - - -
27/08:00am - ESE 18 23 1016.9 - - - - - - - - -
27/07:30am - ESE 17 22 1016.6 - - - - - - - - -
27/07:00am - ESE 17 23 1016.4 - - - - - - - - -
27/06:30am - ESE 17 22 1016.1 - - - - - - - - -
27/06:00am - ESE 17 22 1015.6 - - - - - - - - -
27/05:30am - ESE 18 23 1015.4 - - - - - - - - -
27/05:00am - ESE 19 26 1015.1 - - - - - - - - -
27/04:30am - ESE 20 25 1015.1 - - - - - - - - -
27/04:00am - ESE 18 23 1015.2 - - - - - - - - -
27/03:30am - ESE 20 25 1015.2 - - - - - - - - -
27/03:00am - ESE 21 26 1015.4 - - - - - - - - -
27/02:30am - ESE 18 23 1015.6 - - - - - - - - -
27/02:00am - ESE 20 25 1015.7 - - - - - - - - -
27/01:30am - SE 18 23 1015.8 - - - - - - - - -
27/01:00am - SE 21 27 1015.8 - - - - - - - - -
27/12:30am - SE 19 25 1016.0 - - - - - - - - -
27/12:00am - SE 18 24 1016.3 - - - - - - - - -
 
Date/Time
WST
Temp
°C
Wind Pressure Rain since
9am
mm
Weather Cloud Vis
km
Sea
Height
m
Swell
Dir  Spd
kts
Gust
kts
hPa Trend Height
m
Period
s
Dir
26/11:30pm - SE 18 22 1016.4 - - - - - - - - -
26/11:00pm - ESE 19 24 1016.4 - - - - - - - - -
26/10:30pm - ESE 21 24 1016.3 - - - - - - - - -
26/10:00pm - ESE 19 23 1016.4 - - - - - - - - -
26/09:30pm - ESE 15 18 1016.5 - - - - - - - - -
26/09:00pm - E 10 11 1016.7 - - - - - - - - -
26/08:30pm - ENE 9 11 1016.1 - - - - - - - - -
26/08:00pm - ENE 10 11 1015.6 - - - - - - - - -
26/07:30pm - ENE 10 11 1015.1 - - - - - - - - -
26/07:00pm - ENE 8 9 1014.9 - - - - - - - - -
26/06:30pm - ENE 8 9 1014.7 - - - - - - - - -
26/06:00pm - ENE 9 10 1014.4 - - - - - - - - -
26/05:30pm - ENE 10 11 1014.0 - - - - - - - - -
26/05:00pm - ENE 11 14 1013.7 - - - - - - - - -
26/04:30pm - ENE 12 14 1013.5 - - - - - - - - -
26/04:00pm - ENE 13 15 1013.3 - - - - - - - - -
26/03:30pm - ENE 14 16 1013.2 - - - - - - - - -
26/03:00pm - ENE 16 18 1013.2 - - - - - - - - -
26/02:30pm - ENE 16 18 1013.3 - - - - - - - - -
26/02:00pm - E 16 19 1013.5 - - - - - - - - -
26/01:30pm - E 17 19 1013.6 - - - - - - - - -
26/01:00pm - E 18 21 1013.7 - - - - - - - - -
26/12:30pm - E 19 21 1014.0 - - - - - - - - -
26/12:00pm - E 20 24 1014.3 - - - - - - - - -
26/11:30am - E 21 24 1014.7 - - - - - - - - -
26/11:00am - ESE 19 23 1015.2 - - - - - - - - -
26/10:30am - ESE 20 25 1015.4 - - - - - - - - -
26/10:00am - ESE 20 25 1015.8 - - - - - - - - -
26/09:30am - ESE 19 24 1015.8 - - - - - - - - -
26/09:00am - ESE 21 24 1015.7 - - - - - - - - -
26/08:30am - ESE 21 24 1015.2 - - - - - - - - -
26/08:00am - ESE 20 23 1015.2 - - - - - - - - -
26/07:30am - ESE 17 21 1015.0 - - - - - - - - -
26/07:00am - ESE 15 18 1015.0 - - - - - - - - -
26/06:30am - ESE 15 17 1014.8 - - - - - - - - -
26/06:00am - SE 10 13 1014.9 - - - - - - - - -
26/05:30am - SE 10 13 1014.6 - - - - - - - - -
26/05:00am - ESE 13 16 1014.2 - - - - - - - - -
26/04:30am - ESE 12 14 1014.1 - - - - - - - - -
26/04:00am - SE 9 11 1014.5 - - - - - - - - -
26/03:30am - ESE 6 7 1014.3 - - - - - - - - -
26/03:00am - SSW 6 8 1014.5 - - - - - - - - -
26/02:30am - SSE 6 7 1014.5 - - - - - - - - -
26/02:00am - SE 7 9 1014.3 - - - - - - - - -
26/01:30am - E 9 10 1013.9 - - - - - - - - -
26/01:00am - NE 4 5 1014.2 - - - - - - - - -
26/12:30am - ENE 1 1 1014.7 - - - - - - - - -
26/12:00am - ENE 1 2 1014.6 - - - - - - - - -
 
Date/Time
WST
Temp
°C
Wind Pressure Rain since
9am
mm
Weather Cloud Vis
km
Sea
Height
m
Swell
Dir  Spd
kts
Gust
kts
hPa Trend Height
m
Period
s
Dir
25/11:30pm - CALM 0 0 1014.4 - - - - - - - - -
25/11:00pm - CALM 0 0 1014.8 - - - - - - - - -
25/10:30pm - CALM 0 2 1014.9 - - - - - - - - -
25/10:00pm - NNE 2 4 1015.1 - - - - - - - - -
25/09:30pm - SSW 4 5 1015.2 - - - - - - - - -
25/09:00pm - CALM 0 0 1015.0 - - - - - - - - -
25/08:30pm - SE 1 3 1014.9 - - - - - - - - -

Other Formats:

Comma delimited format used in spreadsheet applications
http://www.bom.gov.au/fwo/IDW60701/IDW60701.94307.axf

JavaScript Object Notation format (JSON) in row-major order
http://www.bom.gov.au/fwo/IDW60701/IDW60701.94307.json